createdAt,value
2022-11-29T00:01:04.793Z,44.28
2022-11-29T00:03:34.900Z,43.55
2022-11-29T00:06:10.061Z,47.58
2022-11-29T00:08:37.129Z,40.73
2022-11-29T00:11:12.245Z,42.08
2022-11-29T00:13:39.448Z,44.78
2022-11-29T00:16:08.716Z,42.33
2022-11-29T00:18:36.667Z,39.97
2022-11-29T00:21:08.030Z,40.23
2022-11-29T00:23:35.802Z,45.53
2022-11-29T00:26:07.187Z,43.78
2022-11-29T00:28:35.581Z,47.38
2022-11-29T00:31:20.395Z,42.28
2022-11-29T00:33:47.573Z,42.73
2022-11-29T00:36:14.913Z,44.83
2022-11-29T00:38:42.156Z,41.40
2022-11-29T00:41:09.871Z,40.38
2022-11-29T00:43:36.626Z,43.05
2022-11-29T00:46:04.315Z,46.03
2022-11-29T00:48:32.390Z,44.15
2022-11-29T00:50:58.975Z,44.25
2022-11-29T00:53:25.758Z,43.60
2022-11-29T00:55:52.826Z,39.70
2022-11-29T00:58:20.813Z,44.17
2022-11-29T01:00:47.764Z,44.47
2022-11-29T01:03:15.383Z,42.28
2022-11-29T01:05:42.966Z,50.92
2022-11-29T01:08:13.608Z,44.58
2022-11-29T01:10:41.184Z,44.87
2022-11-29T01:13:08.634Z,43.22
2022-11-29T01:15:37.367Z,43.65
2022-11-29T01:18:04.272Z,42.70
2022-11-29T01:20:31.290Z,46.60
2022-11-29T01:22:58.344Z,51.47
2022-11-29T01:25:26.175Z,46.28
2022-11-29T01:27:54.380Z,42.10
2022-11-29T01:30:21.431Z,45.88
2022-11-29T01:32:48.139Z,43.75
2022-11-29T01:35:14.816Z,46.87
2022-11-29T01:37:41.396Z,46.03
2022-11-29T01:40:08.558Z,43.00
2022-11-29T01:42:35.153Z,46.05
2022-11-29T01:45:04.243Z,46.88
2022-11-29T01:47:32.030Z,47.10
2022-11-29T01:50:00.042Z,51.33
2022-11-29T01:52:30.941Z,43.58
2022-11-29T01:55:01.515Z,46.42
2022-11-29T01:57:29.292Z,45.42
2022-11-29T02:00:00.516Z,46.63
2022-11-29T02:02:35.438Z,44.83
2022-11-29T02:05:03.214Z,45.75
2022-11-29T02:07:29.860Z,45.35
2022-11-29T02:09:56.477Z,46.33
2022-11-29T02:12:44.042Z,46.80
2022-11-29T02:15:24.701Z,48.22
2022-11-29T02:18:05.781Z,44.45
2022-11-29T02:20:53.993Z,45.60
2022-11-29T02:23:23.402Z,47.70
2022-11-29T02:26:17.195Z,50.83
2022-11-29T02:29:22.214Z,46.08
2022-11-29T02:32:16.413Z,48.85
2022-11-29T02:34:52.059Z,48.63
2022-11-29T02:37:33.831Z,45.13
2022-11-29T02:40:23.491Z,46.50
2022-11-29T02:43:07.055Z,46.92
2022-11-29T02:45:53.762Z,43.63
2022-11-29T02:48:30.387Z,43.50
2022-11-29T02:51:11.336Z,46.33
2022-11-29T02:53:58.673Z,45.23
2022-11-29T02:56:44.094Z,46.47
2022-11-29T02:59:30.629Z,47.33
2022-11-29T03:02:11.774Z,48.88
2022-11-29T03:04:45.494Z,50.55
2022-11-29T03:07:23.093Z,46.37
2022-11-29T03:10:02.239Z,48.45
2022-11-29T03:12:41.628Z,48.20
2022-11-29T03:15:41.694Z,46.80
2022-11-29T03:18:33.824Z,49.30
2022-11-29T03:21:00.376Z,49.07
2022-11-29T03:23:29.860Z,47.85
2022-11-29T03:26:04.694Z,52.15
2022-11-29T03:28:35.953Z,48.20
2022-11-29T03:31:14.560Z,44.22
2022-11-29T03:34:05.160Z,51.03
2022-11-29T03:36:43.858Z,50.75
2022-11-29T03:39:19.195Z,48.80
2022-11-29T03:41:55.363Z,51.28
2022-11-29T03:44:31.195Z,47.10
2022-11-29T03:47:03.562Z,49.73
2022-11-29T03:49:53.024Z,46.83
2022-11-29T03:52:43.885Z,52.78
2022-11-29T03:55:32.995Z,50.70
2022-11-29T03:58:12.760Z,49.40
2022-11-29T04:01:24.233Z,47.07
2022-11-29T04:04:12.521Z,49.75
2022-11-29T04:07:01.061Z,48.78
2022-11-29T04:10:28.699Z,46.30
2022-11-29T04:13:15.989Z,44.53
2022-11-29T04:16:08.602Z,50.53
2022-11-29T04:19:05.949Z,50.80
2022-11-29T04:21:50.977Z,52.00
2022-11-29T04:25:00.177Z,46.15
2022-11-29T04:27:37.635Z,48.28
2022-11-29T04:30:09.431Z,48.57
2022-11-29T04:33:03.956Z,48.80
2022-11-29T04:35:36.463Z,49.30
2022-11-29T04:38:40.336Z,46.47
2022-11-29T04:41:28.074Z,47.75
2022-11-29T04:44:05.568Z,51.23
2022-11-29T04:46:50.881Z,48.67
2022-11-29T04:49:36.188Z,47.40
2022-11-29T04:52:20.723Z,47.88
2022-11-29T04:55:11.658Z,49.60
2022-11-29T04:57:47.577Z,50.23
2022-11-29T05:00:19.205Z,49.28
2022-11-29T05:03:10.207Z,47.55
2022-11-29T05:05:59.397Z,51.00
2022-11-29T05:08:50.663Z,53.40
2022-11-29T05:11:29.297Z,48.97
2022-11-29T05:14:07.572Z,49.70
2022-11-29T05:16:47.905Z,47.28
2022-11-29T05:19:44.022Z,46.80
2022-11-29T05:22:28.211Z,51.72
2022-11-29T05:25:18.873Z,46.03
2022-11-29T05:27:48.482Z,49.67
2022-11-29T05:30:23.526Z,43.13
2022-11-29T05:33:08.793Z,49.22
2022-11-29T05:35:58.791Z,45.75
2022-11-29T05:38:49.365Z,49.13
2022-11-29T05:41:21.827Z,45.00
2022-11-29T05:44:10.010Z,49.75
2022-11-29T05:46:42.800Z,45.13
2022-11-29T05:49:31.112Z,44.45
2022-11-29T05:51:57.716Z,44.73
2022-11-29T05:54:59.066Z,47.58
2022-11-29T05:57:56.107Z,49.17
2022-11-29T06:00:23.189Z,42.50
2022-11-29T06:03:18.680Z,47.88
2022-11-29T06:05:56.643Z,50.67
2022-11-29T06:08:54.988Z,48.05
2022-11-29T06:11:27.800Z,43.22
2022-11-29T06:14:07.747Z,46.95
2022-11-29T06:16:52.769Z,46.22
2022-11-29T06:19:58.425Z,47.23
2022-11-29T06:23:07.169Z,49.08
2022-11-29T06:25:47.303Z,46.58
2022-11-29T06:28:38.543Z,47.75
2022-11-29T06:31:25.343Z,51.25
2022-11-29T06:34:14.923Z,45.97
2022-11-29T06:36:52.037Z,49.83
2022-11-29T06:39:19.307Z,51.42
2022-11-29T06:41:47.048Z,47.42
2022-11-29T06:44:14.025Z,47.53
2022-11-29T06:47:06.683Z,50.50
2022-11-29T06:49:54.383Z,49.88
2022-11-29T06:52:26.921Z,49.50
2022-11-29T06:55:08.452Z,50.97
2022-11-29T06:58:03.198Z,46.45
2022-11-29T07:00:57.430Z,46.13
2022-11-29T07:04:07.445Z,51.10
2022-11-29T07:06:35.029Z,44.10
2022-11-29T07:09:24.543Z,50.58
2022-11-29T07:11:51.239Z,45.63
2022-11-29T07:14:18.152Z,45.17
2022-11-29T07:16:57.636Z,46.08
2022-11-29T07:19:39.878Z,48.88
2022-11-29T07:22:45.272Z,48.75
2022-11-29T07:25:17.682Z,47.20
2022-11-29T07:28:04.548Z,47.63
2022-11-29T07:30:33.869Z,50.33
2022-11-29T07:33:08.839Z,52.50
2022-11-29T07:36:00.898Z,49.58
2022-11-29T07:38:49.309Z,44.17
2022-11-29T07:41:32.093Z,45.83
2022-11-29T07:44:13.003Z,48.33
2022-11-29T07:46:39.624Z,48.38
2022-11-29T07:49:09.277Z,48.00
2022-11-29T07:51:35.980Z,44.42
2022-11-29T07:54:02.678Z,46.77
2022-11-29T07:56:29.873Z,49.42
2022-11-29T07:58:56.701Z,44.88
2022-11-29T08:01:23.418Z,46.08
2022-11-29T08:03:50.098Z,48.20
2022-11-29T08:06:22.885Z,49.87
2022-11-29T08:08:49.367Z,51.80
2022-11-29T08:11:15.956Z,45.88
2022-11-29T08:13:42.863Z,44.03
2022-11-29T08:16:09.425Z,43.97
2022-11-29T08:18:36.585Z,43.20
2022-11-29T08:21:07.492Z,44.50
2022-11-29T08:23:34.212Z,49.08
2022-11-29T08:26:01.956Z,44.65
2022-11-29T08:28:28.716Z,44.20
2022-11-29T08:31:03.266Z,44.47
2022-11-29T08:33:30.036Z,46.55
2022-11-29T08:35:56.756Z,49.90
2022-11-29T08:38:23.343Z,47.25
2022-11-29T08:40:49.898Z,47.70
2022-11-29T08:43:16.509Z,47.77
2022-11-29T08:45:43.302Z,45.95
2022-11-29T08:48:09.897Z,47.88
2022-11-29T08:50:36.483Z,46.50
2022-11-29T08:53:34.897Z,45.17
2022-11-29T08:56:01.588Z,46.40
2022-11-29T08:58:28.466Z,47.83
2022-11-29T09:00:55.909Z,45.45
2022-11-29T09:03:41.342Z,42.63
2022-11-29T09:06:12.606Z,42.53
2022-11-29T09:08:39.833Z,42.60
2022-11-29T09:11:14.468Z,44.92
2022-11-29T09:13:43.074Z,44.20
2022-11-29T09:16:12.455Z,42.80
2022-11-29T09:18:40.684Z,44.60
2022-11-29T09:21:09.778Z,43.10
2022-11-29T09:23:37.325Z,44.85
2022-11-29T09:26:05.349Z,45.30
2022-11-29T09:28:33.477Z,41.63
2022-11-29T09:31:12.515Z,42.88
2022-11-29T09:33:39.863Z,44.93
2022-11-29T09:36:09.081Z,43.28
2022-11-29T09:38:36.157Z,43.05
2022-11-29T09:41:06.868Z,41.63
2022-11-29T09:44:13.901Z,40.80
2022-11-29T09:46:46.555Z,42.67
2022-11-29T09:49:48.329Z,45.13
2022-11-29T09:52:36.121Z,44.55
2022-11-29T09:55:28.668Z,41.72
2022-11-29T09:57:58.264Z,43.22
2022-11-29T10:00:26.066Z,41.87
2022-11-29T10:03:11.048Z,42.00
2022-11-29T10:05:47.453Z,41.65
2022-11-29T10:08:21.512Z,43.17
2022-11-29T10:10:50.790Z,44.05
2022-11-29T10:13:20.349Z,41.57
2022-11-29T10:15:50.101Z,40.72
2022-11-29T10:18:29.646Z,41.83
2022-11-29T10:20:58.559Z,44.08
2022-11-29T10:23:36.711Z,42.40
2022-11-29T10:26:07.913Z,41.00
2022-11-29T10:28:36.678Z,43.75
2022-11-29T10:31:14.620Z,45.35
2022-11-29T10:33:41.797Z,42.08
2022-11-29T10:36:39.587Z,43.72
2022-11-29T10:39:14.789Z,44.80
2022-11-29T10:41:41.733Z,42.47
2022-11-29T10:44:14.122Z,43.17
2022-11-29T10:46:41.189Z,43.00
2022-11-29T10:49:14.034Z,44.22
2022-11-29T10:51:40.658Z,46.43
2022-11-29T10:54:32.552Z,46.10
2022-11-29T10:57:00.833Z,45.15
2022-11-29T10:59:32.918Z,43.33
2022-11-29T11:02:01.651Z,45.72
2022-11-29T11:04:28.533Z,48.30
2022-11-29T11:07:00.946Z,49.17
2022-11-29T11:09:30.047Z,42.78
2022-11-29T11:12:02.977Z,47.22
2022-11-29T11:14:37.596Z,43.33
2022-11-29T11:17:26.276Z,44.10
2022-11-29T11:20:04.489Z,47.53
2022-11-29T11:22:33.011Z,44.97
2022-11-29T11:25:25.067Z,47.75
2022-11-29T11:27:51.968Z,43.90
2022-11-29T11:30:23.540Z,42.73
2022-11-29T11:33:27.256Z,47.22
2022-11-29T11:36:14.819Z,49.75
2022-11-29T11:38:49.524Z,46.80
2022-11-29T11:41:51.006Z,47.67
2022-11-29T11:44:45.764Z,48.00
2022-11-29T11:47:15.360Z,48.17
2022-11-29T11:49:50.127Z,47.95
2022-11-29T11:52:30.520Z,45.65
2022-11-29T11:55:03.960Z,50.70
2022-11-29T11:57:31.516Z,49.07
2022-11-29T12:00:06.345Z,45.00
2022-11-29T12:02:41.039Z,48.05
2022-11-29T12:05:18.362Z,51.47
2022-11-29T12:08:09.386Z,47.22
2022-11-29T12:10:39.802Z,46.30
2022-11-29T12:13:14.968Z,48.70
2022-11-29T12:15:44.957Z,45.78
2022-11-29T12:18:26.690Z,49.55
2022-11-29T12:21:25.349Z,49.65
2022-11-29T12:23:58.741Z,46.97
2022-11-29T12:26:55.950Z,50.33
2022-11-29T12:29:18.577Z,47.22
2022-11-29T12:32:03.079Z,56.13
2022-11-29T12:34:51.336Z,45.33
2022-11-29T12:37:37.315Z,50.03
2022-11-29T12:40:30.575Z,48.55
2022-11-29T12:43:21.855Z,49.72
2022-11-29T12:45:51.865Z,47.70
2022-11-29T12:48:33.568Z,45.38
2022-11-29T12:51:48.433Z,42.17
2022-11-29T12:54:47.895Z,47.03
2022-11-29T12:57:50.421Z,46.50
2022-11-29T13:00:19.753Z,50.40
2022-11-29T13:02:55.297Z,50.03
2022-11-29T13:05:50.569Z,48.80
2022-11-29T13:08:40.192Z,51.00
2022-11-29T13:11:24.953Z,48.67
2022-11-29T13:14:13.710Z,49.58
2022-11-29T13:16:45.292Z,49.38
2022-11-29T13:19:44.468Z,49.77
2022-11-29T13:22:27.795Z,50.92
2022-11-29T13:25:25.896Z,51.83
2022-11-29T13:28:01.795Z,51.03
2022-11-29T13:30:28.373Z,50.65
2022-11-29T13:33:24.742Z,50.33
2022-11-29T13:36:06.297Z,49.22
2022-11-29T13:38:45.849Z,46.88
2022-11-29T13:41:30.323Z,48.17
2022-11-29T13:44:09.062Z,53.30
2022-11-29T13:47:02.405Z,47.57
2022-11-29T13:49:55.002Z,50.15
2022-11-29T13:52:45.406Z,49.53
2022-11-29T13:55:11.926Z,50.42
2022-11-29T13:58:14.937Z,46.85
2022-11-29T14:00:44.240Z,49.27
2022-11-29T14:03:28.927Z,49.47
2022-11-29T14:06:01.577Z,50.33
2022-11-29T14:08:37.954Z,50.40
2022-11-29T14:11:16.715Z,49.70
2022-11-29T14:14:08.440Z,53.00
2022-11-29T14:16:39.701Z,53.53
2022-11-29T14:19:20.151Z,53.25
2022-11-29T14:21:58.938Z,52.13
2022-11-29T14:24:37.933Z,52.92
2022-11-29T14:27:10.211Z,50.27
2022-11-29T14:29:48.858Z,52.20
2022-11-29T14:32:39.295Z,52.05
2022-11-29T14:35:12.240Z,53.50
2022-11-29T14:37:59.424Z,51.17
2022-11-29T14:40:40.716Z,46.03
2022-11-29T14:43:26.532Z,50.58
2022-11-29T14:46:08.545Z,50.10
2022-11-29T14:48:36.704Z,53.80
2022-11-29T14:51:15.592Z,50.55
2022-11-29T14:53:44.585Z,51.43
2022-11-29T14:56:29.565Z,51.30
2022-11-29T14:59:33.744Z,54.00
2022-11-29T15:02:35.095Z,54.28
2022-11-29T15:05:19.456Z,52.22
2022-11-29T15:07:52.779Z,56.77
2022-11-29T15:10:24.127Z,50.75
2022-11-29T15:12:51.946Z,53.72
2022-11-29T15:15:38.749Z,51.33
2022-11-29T15:18:10.982Z,56.17
2022-11-29T15:21:08.741Z,57.60
2022-11-29T15:23:43.127Z,53.05
2022-11-29T15:26:21.883Z,52.90
2022-11-29T15:28:48.514Z,54.00
2022-11-29T15:31:18.804Z,49.20
2022-11-29T15:33:48.603Z,54.33
2022-11-29T15:36:24.200Z,55.72
2022-11-29T15:38:52.945Z,53.85
2022-11-29T15:41:37.828Z,55.40
2022-11-29T15:44:06.645Z,50.90
2022-11-29T15:46:34.874Z,47.90
2022-11-29T15:49:18.582Z,54.95
2022-11-29T15:51:50.213Z,65.32
2022-11-29T15:54:34.685Z,60.33
2022-11-29T15:57:06.303Z,56.17
2022-11-29T15:59:46.438Z,58.23
2022-11-29T16:02:19.523Z,56.20
2022-11-29T16:04:47.868Z,55.17
2022-11-29T16:07:15.328Z,54.72
2022-11-29T16:09:46.125Z,51.83
2022-11-29T16:12:15.962Z,51.07
2022-11-29T16:14:55.798Z,55.80
2022-11-29T16:17:27.002Z,54.72
2022-11-29T16:20:13.369Z,55.65
2022-11-29T16:22:40.077Z,53.03
2022-11-29T16:25:15.847Z,54.90
2022-11-29T16:27:43.093Z,52.78
2022-11-29T16:30:23.746Z,53.50
2022-11-29T16:32:56.752Z,54.67
2022-11-29T16:35:29.254Z,49.45
2022-11-29T16:37:56.154Z,50.77
2022-11-29T16:40:27.222Z,46.80
2022-11-29T16:43:02.965Z,51.10
2022-11-29T16:45:42.762Z,54.28
2022-11-29T16:48:21.802Z,54.28
2022-11-29T16:51:23.887Z,52.10
2022-11-29T16:53:51.791Z,55.50
2022-11-29T16:56:24.386Z,54.22
2022-11-29T16:59:20.767Z,55.40
2022-11-29T17:01:48.073Z,55.67
2022-11-29T17:04:23.500Z,47.70
2022-11-29T17:06:52.904Z,52.70
2022-11-29T17:09:22.967Z,53.50
2022-11-29T17:11:49.510Z,57.60
2022-11-29T17:14:16.156Z,67.85
2022-11-29T17:16:42.868Z,56.33
2022-11-29T17:19:13.388Z,58.00
2022-11-29T17:21:40.328Z,56.70
2022-11-29T17:24:11.124Z,53.53
2022-11-29T17:26:37.739Z,63.83
2022-11-29T17:29:04.481Z,53.53
2022-11-29T17:31:31.636Z,56.97
2022-11-29T17:34:01.300Z,52.50
2022-11-29T17:36:28.157Z,52.33
2022-11-29T17:38:54.887Z,52.63
2022-11-29T17:41:24.160Z,50.43
2022-11-29T17:43:52.469Z,53.78
2022-11-29T17:46:24.494Z,53.95
2022-11-29T17:48:52.166Z,56.22
2022-11-29T17:51:50.109Z,56.22
2022-11-29T17:54:08.605Z,52.83
2022-11-29T17:56:35.240Z,50.40
2022-11-29T17:59:03.833Z,57.65
2022-11-29T18:01:33.500Z,57.35
2022-11-29T18:04:01.994Z,55.05
2022-11-29T18:06:36.010Z,54.77
2022-11-29T18:09:07.594Z,59.17
2022-11-29T18:11:45.273Z,54.47
2022-11-29T18:14:23.242Z,56.08
2022-11-29T18:16:50.352Z,55.03
2022-11-29T18:19:19.402Z,55.17
2022-11-29T18:21:46.207Z,55.08
2022-11-29T18:24:12.777Z,57.75
2022-11-29T18:26:39.855Z,57.90
2022-11-29T18:29:07.301Z,58.47
2022-11-29T18:31:36.467Z,58.23
2022-11-29T18:34:07.087Z,56.53
2022-11-29T18:36:36.597Z,56.45
2022-11-29T18:39:11.232Z,53.55
2022-11-29T18:41:38.065Z,54.25
2022-11-29T18:44:10.590Z,53.37
2022-11-29T18:46:38.188Z,55.65
2022-11-29T18:49:06.755Z,53.63
2022-11-29T18:51:35.165Z,57.00
2022-11-29T18:54:02.033Z,60.08
2022-11-29T18:56:30.558Z,55.37
2022-11-29T18:59:05.501Z,56.53
2022-11-29T19:01:34.629Z,57.00
2022-11-29T19:04:01.926Z,53.25
2022-11-29T19:06:38.929Z,61.22
2022-11-29T19:09:07.859Z,59.00
2022-11-29T19:11:34.864Z,58.83
2022-11-29T19:14:05.373Z,62.00
2022-11-29T19:16:33.785Z,58.28
2022-11-29T19:19:01.531Z,63.15
2022-11-29T19:21:31.724Z,70.00
2022-11-29T19:24:00.634Z,60.65
2022-11-29T19:26:29.310Z,58.30
2022-11-29T19:28:56.905Z,67.38
2022-11-29T19:31:25.395Z,55.38
2022-11-29T19:33:52.841Z,55.73
2022-11-29T19:36:24.749Z,60.63
2022-11-29T19:38:54.150Z,56.50
2022-11-29T19:41:22.328Z,60.67
2022-11-29T19:43:49.372Z,56.13
2022-11-29T19:46:27.732Z,60.60
2022-11-29T19:48:56.391Z,61.50
2022-11-29T19:51:24.339Z,60.03
2022-11-29T19:53:55.647Z,58.42
2022-11-29T19:56:23.444Z,60.97
2022-11-29T19:58:50.581Z,58.13
2022-11-29T20:01:19.918Z,59.97
2022-11-29T20:03:46.671Z,60.35
2022-11-29T20:06:14.145Z,59.75
2022-11-29T20:08:41.702Z,60.63
2022-11-29T20:11:09.983Z,61.17
2022-11-29T20:13:37.926Z,68.60
2022-11-29T20:16:09.950Z,67.65
2022-11-29T20:18:39.239Z,58.92
2022-11-29T20:21:09.060Z,63.08
2022-11-29T20:23:35.649Z,64.37
2022-11-29T20:26:02.349Z,66.57
2022-11-29T20:28:29.992Z,71.22
2022-11-29T20:30:56.951Z,72.78
2022-11-29T20:33:25.356Z,72.65
2022-11-29T20:36:06.556Z,65.73
2022-11-29T20:38:41.063Z,62.20
2022-11-29T20:41:31.007Z,65.88
2022-11-29T20:44:01.597Z,69.40
2022-11-29T20:46:28.727Z,73.90
2022-11-29T20:48:57.191Z,73.23
2022-11-29T20:51:40.154Z,66.80
2022-11-29T20:54:07.005Z,64.88
2022-11-29T20:56:33.539Z,68.93
2022-11-29T20:59:00.082Z,64.20
2022-11-29T21:01:26.907Z,69.97
2022-11-29T21:03:53.720Z,64.20
2022-11-29T21:06:20.408Z,64.75
2022-11-29T21:08:47.752Z,63.42
2022-11-29T21:11:14.737Z,65.28
2022-11-29T21:13:41.609Z,64.43
2022-11-29T21:16:11.016Z,64.60
2022-11-29T21:18:38.399Z,70.97
2022-11-29T21:21:34.999Z,70.85
2022-11-29T21:24:04.647Z,67.53
2022-11-29T21:26:42.303Z,68.47
2022-11-29T21:29:20.785Z,73.50
2022-11-29T21:31:53.405Z,69.57
2022-11-29T21:34:22.907Z,69.22
2022-11-29T21:36:57.229Z,77.70
2022-11-29T21:39:29.676Z,68.43
2022-11-29T21:41:56.279Z,70.90
2022-11-29T21:44:22.849Z,70.18
2022-11-29T21:46:50.079Z,72.40
2022-11-29T21:49:16.728Z,67.60
2022-11-29T21:51:43.382Z,71.90
2022-11-29T21:54:10.087Z,68.82
2022-11-29T21:56:37.309Z,68.57
2022-11-29T21:59:03.999Z,73.82
2022-11-29T22:01:30.652Z,68.25
2022-11-29T22:03:57.255Z,68.50
2022-11-29T22:06:28.205Z,69.10
2022-11-29T22:08:54.886Z,71.63
2022-11-29T22:11:32.130Z,68.13
2022-11-29T22:14:16.114Z,76.90
2022-11-29T22:16:48.036Z,75.77
2022-11-29T22:19:20.130Z,68.88
2022-11-29T22:21:49.990Z,75.03
2022-11-29T22:24:18.726Z,69.35
2022-11-29T22:26:45.874Z,69.53
2022-11-29T22:29:14.108Z,72.27
2022-11-29T22:31:42.157Z,72.28
2022-11-29T22:34:08.941Z,65.82
2022-11-29T22:36:36.062Z,69.57
2022-11-29T22:39:03.915Z,67.10
2022-11-29T22:41:32.020Z,75.20
2022-11-29T22:43:58.627Z,70.13
2022-11-29T22:46:27.065Z,73.63
2022-11-29T22:48:55.566Z,69.05
2022-11-29T22:51:28.697Z,71.70
2022-11-29T22:53:57.117Z,74.87
2022-11-29T22:56:26.425Z,73.18
2022-11-29T22:58:53.366Z,68.43
2022-11-29T23:01:25.564Z,65.93
2022-11-29T23:03:57.217Z,64.72
2022-11-29T23:06:29.477Z,72.20
2022-11-29T23:08:59.200Z,70.70
2022-11-29T23:11:28.096Z,69.25
2022-11-29T23:13:55.282Z,73.00
2022-11-29T23:16:27.993Z,71.15
2022-11-29T23:18:55.622Z,70.50
2022-11-29T23:21:24.959Z,70.25
2022-11-29T23:23:56.355Z,75.10
2022-11-29T23:26:29.168Z,71.20
2022-11-29T23:28:56.460Z,74.32
2022-11-29T23:31:24.186Z,71.43
2022-11-29T23:33:50.945Z,69.95
2022-11-29T23:36:17.728Z,74.93
2022-11-29T23:38:44.828Z,69.82
2022-11-29T23:41:12.027Z,68.65
2022-11-29T23:43:40.554Z,73.67
2022-11-29T23:46:25.484Z,78.57
2022-11-29T23:48:52.538Z,64.72
2022-11-29T23:51:19.772Z,67.40
2022-11-29T23:53:50.109Z,69.15
2022-11-29T23:56:17.989Z,67.83
2022-11-29T23:58:45.420Z,69.20
